Parmelee, South Dakota
Current Conditions -  °F | °C
As of 6:52 AM on Friday 24 Oct 2014 (Local Time) from KVTN Reporting Station
Clear Clear  
Wind Chill: 35°   Ceiling: Unl
Heat Index: 40°   Visibility: 10mi
Dew Point: 36°   Wind: 7mph
Humidity: 86%   Direction: 240°WSW
Pressure: 29.93"   Gusts: NA
Location:  43.32°N, 101.03°W
Report Text: KVTN 241252Z AUTO 24006KT 10SM CLR 04/02 A2993 RMK AO2 SLP138 T00440022
Loading
Personal Weather Stations






























Interactive Weather Map
Tropical Storm Tracking
New forecast layout! Learn more

10-Day Weather Forecast

Advertisements
Track Severe Weather on mobile